sensor_id;sensor_type;location;lat;lon;timestamp;P1;durP1;ratioP1;P2;durP2;ratioP2
17741;SDS011;8993;51.822;-2.268;2023-09-07T00:04:33;10.41;;;7.82;;
17741;SDS011;8993;51.822;-2.268;2023-09-07T00:09:37;10.64;;;7.79;;
17741;SDS011;8993;51.822;-2.268;2023-09-07T00:14:44;11.96;;;8.13;;
17741;SDS011;8993;51.822;-2.268;2023-09-07T00:19:49;10.92;;;7.81;;
17741;SDS011;8993;51.822;-2.268;2023-09-07T00:24:53;14.59;;;9.81;;
17741;SDS011;8993;51.822;-2.268;2023-09-07T00:29:58;14.17;;;9.92;;
17741;SDS011;8993;51.822;-2.268;2023-09-07T00:35:04;11.00;;;7.79;;
17741;SDS011;8993;51.822;-2.268;2023-09-07T00:40:08;9.96;;;7.62;;
17741;SDS011;8993;51.822;-2.268;2023-09-07T00:45:13;14.14;;;10.21;;
17741;SDS011;8993;51.822;-2.268;2023-09-07T00:50:18;10.36;;;7.63;;
17741;SDS011;8993;51.822;-2.268;2023-09-07T00:55:23;10.94;;;8.83;;
17741;SDS011;8993;51.822;-2.268;2023-09-07T01:00:27;16.80;;;11.55;;
17741;SDS011;8993;51.822;-2.268;2023-09-07T01:05:39;13.86;;;9.82;;
17741;SDS011;8993;51.822;-2.268;2023-09-07T01:10:38;14.01;;;10.72;;
17741;SDS011;8993;51.822;-2.268;2023-09-07T01:15:42;15.92;;;11.96;;
17741;SDS011;8993;51.822;-2.268;2023-09-07T01:20:47;18.90;;;14.44;;
17741;SDS011;8993;51.822;-2.268;2023-09-07T01:25:52;16.37;;;11.50;;
17741;SDS011;8993;51.822;-2.268;2023-09-07T01:30:58;14.61;;;10.29;;
17741;SDS011;8993;51.822;-2.268;2023-09-07T01:36:03;14.72;;;9.93;;
17741;SDS011;8993;51.822;-2.268;2023-09-07T01:41:08;16.16;;;11.57;;
17741;SDS011;8993;51.822;-2.268;2023-09-07T01:46:12;15.62;;;10.83;;
17741;SDS011;8993;51.822;-2.268;2023-09-07T01:51:17;17.65;;;12.63;;
17741;SDS011;8993;51.822;-2.268;2023-09-07T01:56:22;13.33;;;9.41;;
17741;SDS011;8993;51.822;-2.268;2023-09-07T02:01:27;16.69;;;11.51;;
17741;SDS011;8993;51.822;-2.268;2023-09-07T02:06:31;18.51;;;12.18;;
17741;SDS011;8993;51.822;-2.268;2023-09-07T02:11:36;18.90;;;12.27;;
17741;SDS011;8993;51.822;-2.268;2023-09-07T02:16:40;16.29;;;10.56;;
17741;SDS011;8993;51.822;-2.268;2023-09-07T02:21:46;16.50;;;11.50;;
17741;SDS011;8993;51.822;-2.268;2023-09-07T02:26:53;14.67;;;10.55;;
17741;SDS011;8993;51.822;-2.268;2023-09-07T02:31:58;12.34;;;8.78;;
17741;SDS011;8993;51.822;-2.268;2023-09-07T02:37:04;17.07;;;11.77;;
17741;SDS011;8993;51.822;-2.268;2023-09-07T02:42:08;21.81;;;15.42;;
17741;SDS011;8993;51.822;-2.268;2023-09-07T02:47:12;15.77;;;11.48;;
17741;SDS011;8993;51.822;-2.268;2023-09-07T02:52:17;16.79;;;11.77;;
17741;SDS011;8993;51.822;-2.268;2023-09-07T02:57:22;18.34;;;13.57;;
17741;SDS011;8993;51.822;-2.268;2023-09-07T03:02:27;18.61;;;13.21;;
17741;SDS011;8993;51.822;-2.268;2023-09-07T03:07:32;23.56;;;14.97;;
17741;SDS011;8993;51.822;-2.268;2023-09-07T03:12:36;20.32;;;14.53;;
17741;SDS011;8993;51.822;-2.268;2023-09-07T03:17:41;15.67;;;10.99;;
17741;SDS011;8993;51.822;-2.268;2023-09-07T03:22:46;14.57;;;10.18;;
17741;SDS011;8993;51.822;-2.268;2023-09-07T03:27:50;17.37;;;12.57;;
17741;SDS011;8993;51.822;-2.268;2023-09-07T03:32:55;14.60;;;10.18;;
17741;SDS011;8993;51.822;-2.268;2023-09-07T03:37:59;14.22;;;10.79;;
17741;SDS011;8993;51.822;-2.268;2023-09-07T03:43:04;16.49;;;11.84;;
17741;SDS011;8993;51.822;-2.268;2023-09-07T03:48:09;16.22;;;12.06;;
17741;SDS011;8993;51.822;-2.268;2023-09-07T03:53:13;18.22;;;12.77;;
17741;SDS011;8993;51.822;-2.268;2023-09-07T03:58:19;19.34;;;13.58;;
17741;SDS011;8993;51.822;-2.268;2023-09-07T04:03:23;21.33;;;14.33;;
17741;SDS011;8993;51.822;-2.268;2023-09-07T04:08:28;18.71;;;13.71;;
17741;SDS011;8993;51.822;-2.268;2023-09-07T04:13:38;18.41;;;13.14;;
17741;SDS011;8993;51.822;-2.268;2023-09-07T04:18:44;18.88;;;11.86;;
17741;SDS011;8993;51.822;-2.268;2023-09-07T04:23:51;19.60;;;14.04;;
17741;SDS011;8993;51.822;-2.268;2023-09-07T04:28:55;21.14;;;14.51;;
17741;SDS011;8993;51.822;-2.268;2023-09-07T04:34:03;22.45;;;15.30;;
17741;SDS011;8993;51.822;-2.268;2023-09-07T04:39:08;17.39;;;13.13;;
17741;SDS011;8993;51.822;-2.268;2023-09-07T04:44:13;17.46;;;13.22;;
17741;SDS011;8993;51.822;-2.268;2023-09-07T04:49:18;14.37;;;11.26;;
17741;SDS011;8993;51.822;-2.268;2023-09-07T04:54:23;18.92;;;14.13;;
17741;SDS011;8993;51.822;-2.268;2023-09-07T04:59:27;20.54;;;15.37;;
17741;SDS011;8993;51.822;-2.268;2023-09-07T05:04:32;17.88;;;13.92;;
17741;SDS011;8993;51.822;-2.268;2023-09-07T05:09:37;17.67;;;13.76;;
17741;SDS011;8993;51.822;-2.268;2023-09-07T05:14:41;13.62;;;11.44;;
17741;SDS011;8993;51.822;-2.268;2023-09-07T05:19:48;19.30;;;14.15;;
17741;SDS011;8993;51.822;-2.268;2023-09-07T05:24:53;16.12;;;12.81;;
17741;SDS011;8993;51.822;-2.268;2023-09-07T05:29:58;14.23;;;11.15;;
17741;SDS011;8993;51.822;-2.268;2023-09-07T05:35:04;18.29;;;13.69;;
17741;SDS011;8993;51.822;-2.268;2023-09-07T05:45:15;23.10;;;18.30;;
17741;SDS011;8993;51.822;-2.268;2023-09-07T05:50:20;16.75;;;13.10;;
17741;SDS011;8993;51.822;-2.268;2023-09-07T05:55:25;17.57;;;12.82;;
17741;SDS011;8993;51.822;-2.268;2023-09-07T06:00:30;20.91;;;16.96;;
17741;SDS011;8993;51.822;-2.268;2023-09-07T06:05:35;18.75;;;14.60;;
17741;SDS011;8993;51.822;-2.268;2023-09-07T06:10:39;18.34;;;13.73;;
17741;SDS011;8993;51.822;-2.268;2023-09-07T06:15:44;23.61;;;17.65;;
17741;SDS011;8993;51.822;-2.268;2023-09-07T06:20:49;16.03;;;12.61;;
17741;SDS011;8993;51.822;-2.268;2023-09-07T06:25:54;20.85;;;15.28;;
17741;SDS011;8993;51.822;-2.268;2023-09-07T06:31:00;17.43;;;13.59;;
17741;SDS011;8993;51.822;-2.268;2023-09-07T06:36:08;19.30;;;15.12;;
17741;SDS011;8993;51.822;-2.268;2023-09-07T06:51:26;22.40;;;17.10;;
17741;SDS011;8993;51.822;-2.268;2023-09-07T07:01:36;19.96;;;15.01;;
17741;SDS011;8993;51.822;-2.268;2023-09-07T07:06:45;22.34;;;17.55;;
17741;SDS011;8993;51.822;-2.268;2023-09-07T07:11:53;21.24;;;16.71;;
17741;SDS011;8993;51.822;-2.268;2023-09-07T07:16:57;21.82;;;16.57;;
17741;SDS011;8993;51.822;-2.268;2023-09-07T07:22:03;24.84;;;16.97;;
17741;SDS011;8993;51.822;-2.268;2023-09-07T07:27:07;22.13;;;15.48;;
17741;SDS011;8993;51.822;-2.268;2023-09-07T07:32:12;26.28;;;17.42;;
17741;SDS011;8993;51.822;-2.268;2023-09-07T07:37:16;24.71;;;17.27;;
17741;SDS011;8993;51.822;-2.268;2023-09-07T07:42:22;23.94;;;16.60;;
17741;SDS011;8993;51.822;-2.268;2023-09-07T07:47:27;23.45;;;17.42;;
17741;SDS011;8993;51.822;-2.268;2023-09-07T07:52:33;22.92;;;16.48;;
17741;SDS011;8993;51.822;-2.268;2023-09-07T07:57:41;21.68;;;16.56;;
17741;SDS011;8993;51.822;-2.268;2023-09-07T08:02:46;24.80;;;17.08;;
17741;SDS011;8993;51.822;-2.268;2023-09-07T08:07:52;23.15;;;16.93;;
17741;SDS011;8993;51.822;-2.268;2023-09-07T08:12:57;22.41;;;16.81;;
17741;SDS011;8993;51.822;-2.268;2023-09-07T08:18:02;21.03;;;16.21;;
17741;SDS011;8993;51.822;-2.268;2023-09-07T08:23:07;21.52;;;16.03;;
17741;SDS011;8993;51.822;-2.268;2023-09-07T08:28:12;20.57;;;15.05;;
17741;SDS011;8993;51.822;-2.268;2023-09-07T08:33:17;20.13;;;15.08;;
17741;SDS011;8993;51.822;-2.268;2023-09-07T08:49:11;22.04;;;13.73;;
17741;SDS011;8993;51.822;-2.268;2023-09-07T08:54:15;22.26;;;14.05;;
17741;SDS011;8993;51.822;-2.268;2023-09-07T08:59:20;17.71;;;12.50;;
17741;SDS011;8993;51.822;-2.268;2023-09-07T09:04:25;19.66;;;11.89;;
17741;SDS011;8993;51.822;-2.268;2023-09-07T09:09:29;17.36;;;11.08;;
17741;SDS011;8993;51.822;-2.268;2023-09-07T09:14:34;21.82;;;11.62;;
17741;SDS011;8993;51.822;-2.268;2023-09-07T09:19:39;17.93;;;11.60;;
17741;SDS011;8993;51.822;-2.268;2023-09-07T09:24:44;14.17;;;9.67;;
17741;SDS011;8993;51.822;-2.268;2023-09-07T09:29:49;18.10;;;10.72;;
17741;SDS011;8993;51.822;-2.268;2023-09-07T09:34:55;12.09;;;9.02;;
17741;SDS011;8993;51.822;-2.268;2023-09-07T09:40:00;15.08;;;9.92;;
17741;SDS011;8993;51.822;-2.268;2023-09-07T09:45:05;13.00;;;8.40;;
17741;SDS011;8993;51.822;-2.268;2023-09-07T09:50:11;15.36;;;9.46;;
17741;SDS011;8993;51.822;-2.268;2023-09-07T09:55:15;15.69;;;8.78;;
17741;SDS011;8993;51.822;-2.268;2023-09-07T10:00:20;13.69;;;9.07;;
17741;SDS011;8993;51.822;-2.268;2023-09-07T10:05:24;14.64;;;9.23;;
17741;SDS011;8993;51.822;-2.268;2023-09-07T10:10:31;12.87;;;8.68;;
17741;SDS011;8993;51.822;-2.268;2023-09-07T10:15:34;15.42;;;8.92;;
17741;SDS011;8993;51.822;-2.268;2023-09-07T10:20:48;11.84;;;8.29;;
17741;SDS011;8993;51.822;-2.268;2023-09-07T10:25:49;14.68;;;8.55;;
17741;SDS011;8993;51.822;-2.268;2023-09-07T10:35:55;13.31;;;7.94;;
17741;SDS011;8993;51.822;-2.268;2023-09-07T10:41:01;11.85;;;8.46;;
17741;SDS011;8993;51.822;-2.268;2023-09-07T10:46:06;12.50;;;8.60;;
17741;SDS011;8993;51.822;-2.268;2023-09-07T10:51:12;11.61;;;7.37;;
17741;SDS011;8993;51.822;-2.268;2023-09-07T10:56:16;11.27;;;7.12;;
17741;SDS011;8993;51.822;-2.268;2023-09-07T11:01:22;12.41;;;6.57;;
17741;SDS011;8993;51.822;-2.268;2023-09-07T11:06:29;10.70;;;6.42;;
17741;SDS011;8993;51.822;-2.268;2023-09-07T11:11:35;8.09;;;6.00;;
17741;SDS011;8993;51.822;-2.268;2023-09-07T11:16:40;8.96;;;6.31;;
17741;SDS011;8993;51.822;-2.268;2023-09-07T11:21:45;9.74;;;6.21;;
17741;SDS011;8993;51.822;-2.268;2023-09-07T11:26:49;12.74;;;6.22;;
17741;SDS011;8993;51.822;-2.268;2023-09-07T11:31:54;9.42;;;6.12;;
17741;SDS011;8993;51.822;-2.268;2023-09-07T11:36:58;10.71;;;5.38;;
17741;SDS011;8993;51.822;-2.268;2023-09-07T11:42:04;7.97;;;4.70;;
17741;SDS011;8993;51.822;-2.268;2023-09-07T11:47:11;8.37;;;4.23;;
17741;SDS011;8993;51.822;-2.268;2023-09-07T11:52:18;9.59;;;4.61;;
17741;SDS011;8993;51.822;-2.268;2023-09-07T11:57:23;12.45;;;4.39;;
17741;SDS011;8993;51.822;-2.268;2023-09-07T12:02:28;10.70;;;4.36;;
17741;SDS011;8993;51.822;-2.268;2023-09-07T12:07:33;8.00;;;3.91;;
17741;SDS011;8993;51.822;-2.268;2023-09-07T12:12:38;5.65;;;3.50;;
17741;SDS011;8993;51.822;-2.268;2023-09-07T12:17:42;5.47;;;2.82;;
17741;SDS011;8993;51.822;-2.268;2023-09-07T12:22:48;5.86;;;2.64;;
17741;SDS011;8993;51.822;-2.268;2023-09-07T12:27:52;6.85;;;2.72;;
17741;SDS011;8993;51.822;-2.268;2023-09-07T12:32:57;5.33;;;2.44;;
17741;SDS011;8993;51.822;-2.268;2023-09-07T12:38:02;4.27;;;2.26;;
17741;SDS011;8993;51.822;-2.268;2023-09-07T12:43:07;5.97;;;2.47;;
17741;SDS011;8993;51.822;-2.268;2023-09-07T12:49:56;5.42;;;2.44;;
17741;SDS011;8993;51.822;-2.268;2023-09-07T12:53:21;4.61;;;2.22;;
17741;SDS011;8993;51.822;-2.268;2023-09-07T12:58:27;4.91;;;2.22;;
17741;SDS011;8993;51.822;-2.268;2023-09-07T13:03:32;4.45;;;2.16;;
17741;SDS011;8993;51.822;-2.268;2023-09-07T13:08:36;5.04;;;2.18;;
17741;SDS011;8993;51.822;-2.268;2023-09-07T13:13:41;4.96;;;1.98;;
17741;SDS011;8993;51.822;-2.268;2023-09-07T13:18:46;3.77;;;2.02;;
17741;SDS011;8993;51.822;-2.268;2023-09-07T13:23:51;3.28;;;1.99;;
17741;SDS011;8993;51.822;-2.268;2023-09-07T13:28:55;3.68;;;1.96;;
17741;SDS011;8993;51.822;-2.268;2023-09-07T13:34:00;4.24;;;1.79;;
17741;SDS011;8993;51.822;-2.268;2023-09-07T13:39:05;2.85;;;1.54;;
17741;SDS011;8993;51.822;-2.268;2023-09-07T13:44:11;5.05;;;1.73;;
17741;SDS011;8993;51.822;-2.268;2023-09-07T13:52:33;4.41;;;1.76;;
17741;SDS011;8993;51.822;-2.268;2023-09-07T14:14:52;3.81;;;1.72;;
17741;SDS011;8993;51.822;-2.268;2023-09-07T14:19:46;4.60;;;1.72;;
17741;SDS011;8993;51.822;-2.268;2023-09-07T14:24:51;4.78;;;1.78;;
17741;SDS011;8993;51.822;-2.268;2023-09-07T14:29:58;3.36;;;1.73;;
17741;SDS011;8993;51.822;-2.268;2023-09-07T14:35:03;3.42;;;1.79;;
17741;SDS011;8993;51.822;-2.268;2023-09-07T14:40:08;3.45;;;1.79;;
17741;SDS011;8993;51.822;-2.268;2023-09-07T14:45:13;3.12;;;1.65;;
17741;SDS011;8993;51.822;-2.268;2023-09-07T14:50:17;2.42;;;1.61;;
17741;SDS011;8993;51.822;-2.268;2023-09-07T14:55:23;3.00;;;1.58;;
17741;SDS011;8993;51.822;-2.268;2023-09-07T15:00:28;3.62;;;1.78;;
17741;SDS011;8993;51.822;-2.268;2023-09-07T15:05:35;2.74;;;1.61;;
17741;SDS011;8993;51.822;-2.268;2023-09-07T15:10:39;2.89;;;1.61;;
17741;SDS011;8993;51.822;-2.268;2023-09-07T15:15:44;3.35;;;1.67;;
17741;SDS011;8993;51.822;-2.268;2023-09-07T15:20:48;2.27;;;1.67;;
17741;SDS011;8993;51.822;-2.268;2023-09-07T15:25:53;1.85;;;1.49;;
17741;SDS011;8993;51.822;-2.268;2023-09-07T15:30:58;3.20;;;1.93;;
17741;SDS011;8993;51.822;-2.268;2023-09-07T15:36:02;3.81;;;1.93;;
17741;SDS011;8993;51.822;-2.268;2023-09-07T15:41:07;3.58;;;1.79;;
17741;SDS011;8993;51.822;-2.268;2023-09-07T15:46:12;2.38;;;1.69;;
17741;SDS011;8993;51.822;-2.268;2023-09-07T15:51:16;5.14;;;1.99;;
17741;SDS011;8993;51.822;-2.268;2023-09-07T15:56:21;2.67;;;1.76;;
17741;SDS011;8993;51.822;-2.268;2023-09-07T16:01:26;3.71;;;1.87;;
17741;SDS011;8993;51.822;-2.268;2023-09-07T16:06:31;3.08;;;1.71;;
17741;SDS011;8993;51.822;-2.268;2023-09-07T16:11:35;3.29;;;1.68;;
17741;SDS011;8993;51.822;-2.268;2023-09-07T16:16:40;3.62;;;1.65;;
17741;SDS011;8993;51.822;-2.268;2023-09-07T16:21:45;3.08;;;1.90;;
17741;SDS011;8993;51.822;-2.268;2023-09-07T16:26:49;4.40;;;2.45;;
17741;SDS011;8993;51.822;-2.268;2023-09-07T16:31:54;3.49;;;1.86;;
17741;SDS011;8993;51.822;-2.268;2023-09-07T16:36:59;2.93;;;1.98;;
17741;SDS011;8993;51.822;-2.268;2023-09-07T16:42:05;4.35;;;2.32;;
17741;SDS011;8993;51.822;-2.268;2023-09-07T16:47:10;4.01;;;2.56;;
17741;SDS011;8993;51.822;-2.268;2023-09-07T16:52:15;5.28;;;2.66;;
17741;SDS011;8993;51.822;-2.268;2023-09-07T16:57:19;5.01;;;2.78;;
17741;SDS011;8993;51.822;-2.268;2023-09-07T17:02:24;5.02;;;2.39;;
17741;SDS011;8993;51.822;-2.268;2023-09-07T17:07:29;4.93;;;2.65;;
17741;SDS011;8993;51.822;-2.268;2023-09-07T17:12:33;5.38;;;2.68;;
17741;SDS011;8993;51.822;-2.268;2023-09-07T17:17:38;3.87;;;2.30;;
17741;SDS011;8993;51.822;-2.268;2023-09-07T17:22:43;3.12;;;2.33;;
17741;SDS011;8993;51.822;-2.268;2023-09-07T17:27:47;3.54;;;2.60;;
17741;SDS011;8993;51.822;-2.268;2023-09-07T17:32:52;4.93;;;2.38;;
17741;SDS011;8993;51.822;-2.268;2023-09-07T17:37:56;3.13;;;2.33;;
17741;SDS011;8993;51.822;-2.268;2023-09-07T17:43:01;3.15;;;2.38;;
17741;SDS011;8993;51.822;-2.268;2023-09-07T17:48:06;4.36;;;2.43;;
17741;SDS011;8993;51.822;-2.268;2023-09-07T17:53:10;4.58;;;2.56;;
17741;SDS011;8993;51.822;-2.268;2023-09-07T17:58:15;3.50;;;2.55;;
17741;SDS011;8993;51.822;-2.268;2023-09-07T18:03:19;2.51;;;2.05;;
17741;SDS011;8993;51.822;-2.268;2023-09-07T18:08:23;5.76;;;3.00;;
17741;SDS011;8993;51.822;-2.268;2023-09-07T18:13:28;3.91;;;2.26;;
17741;SDS011;8993;51.822;-2.268;2023-09-07T18:18:32;4.88;;;2.83;;
17741;SDS011;8993;51.822;-2.268;2023-09-07T18:23:40;4.67;;;2.79;;
17741;SDS011;8993;51.822;-2.268;2023-09-07T18:28:45;3.98;;;2.78;;
17741;SDS011;8993;51.822;-2.268;2023-09-07T18:33:50;3.25;;;2.70;;
17741;SDS011;8993;51.822;-2.268;2023-09-07T18:38:54;5.51;;;3.25;;
17741;SDS011;8993;51.822;-2.268;2023-09-07T18:43:59;6.17;;;3.41;;
17741;SDS011;8993;51.822;-2.268;2023-09-07T18:49:04;4.92;;;3.38;;
17741;SDS011;8993;51.822;-2.268;2023-09-07T18:54:09;7.72;;;4.09;;
17741;SDS011;8993;51.822;-2.268;2023-09-07T18:59:13;9.26;;;4.41;;
17741;SDS011;8993;51.822;-2.268;2023-09-07T19:04:20;6.83;;;3.94;;
17741;SDS011;8993;51.822;-2.268;2023-09-07T19:09:24;19.22;;;8.69;;
17741;SDS011;8993;51.822;-2.268;2023-09-07T19:14:30;13.22;;;6.46;;
17741;SDS011;8993;51.822;-2.268;2023-09-07T19:19:35;8.28;;;4.45;;
17741;SDS011;8993;51.822;-2.268;2023-09-07T19:24:46;14.46;;;7.10;;
17741;SDS011;8993;51.822;-2.268;2023-09-07T19:29:40;14.53;;;7.24;;
17741;SDS011;8993;51.822;-2.268;2023-09-07T19:34:45;18.51;;;8.95;;
17741;SDS011;8993;51.822;-2.268;2023-09-07T19:39:50;18.38;;;8.45;;
17741;SDS011;8993;51.822;-2.268;2023-09-07T19:44:55;22.36;;;10.26;;
17741;SDS011;8993;51.822;-2.268;2023-09-07T19:49:59;19.19;;;9.17;;
17741;SDS011;8993;51.822;-2.268;2023-09-07T19:55:04;19.63;;;9.24;;
17741;SDS011;8993;51.822;-2.268;2023-09-07T20:00:09;12.91;;;7.43;;
17741;SDS011;8993;51.822;-2.268;2023-09-07T20:05:13;13.33;;;7.01;;
17741;SDS011;8993;51.822;-2.268;2023-09-07T20:10:19;12.37;;;6.58;;
17741;SDS011;8993;51.822;-2.268;2023-09-07T20:15:24;27.15;;;12.29;;
17741;SDS011;8993;51.822;-2.268;2023-09-07T20:20:29;60.18;;;23.24;;
17741;SDS011;8993;51.822;-2.268;2023-09-07T20:25:34;43.11;;;18.14;;
17741;SDS011;8993;51.822;-2.268;2023-09-07T20:30:39;29.55;;;12.42;;
17741;SDS011;8993;51.822;-2.268;2023-09-07T20:35:44;10.32;;;6.93;;
17741;SDS011;8993;51.822;-2.268;2023-09-07T20:40:49;10.65;;;7.04;;
17741;SDS011;8993;51.822;-2.268;2023-09-07T20:45:54;8.46;;;6.19;;
17741;SDS011;8993;51.822;-2.268;2023-09-07T20:50:59;9.95;;;5.77;;
17741;SDS011;8993;51.822;-2.268;2023-09-07T20:56:04;7.30;;;4.98;;
17741;SDS011;8993;51.822;-2.268;2023-09-07T21:01:09;8.34;;;6.05;;
17741;SDS011;8993;51.822;-2.268;2023-09-07T21:06:13;8.98;;;6.04;;
17741;SDS011;8993;51.822;-2.268;2023-09-07T21:11:18;9.52;;;5.72;;
17741;SDS011;8993;51.822;-2.268;2023-09-07T21:16:22;7.41;;;5.12;;
17741;SDS011;8993;51.822;-2.268;2023-09-07T21:21:27;9.74;;;6.06;;
17741;SDS011;8993;51.822;-2.268;2023-09-07T21:26:33;7.32;;;5.27;;
17741;SDS011;8993;51.822;-2.268;2023-09-07T21:31:37;9.55;;;6.48;;
17741;SDS011;8993;51.822;-2.268;2023-09-07T21:36:42;9.15;;;6.15;;
17741;SDS011;8993;51.822;-2.268;2023-09-07T21:41:47;12.92;;;7.56;;
17741;SDS011;8993;51.822;-2.268;2023-09-07T21:46:52;8.92;;;5.84;;
17741;SDS011;8993;51.822;-2.268;2023-09-07T21:51:56;13.25;;;8.21;;
17741;SDS011;8993;51.822;-2.268;2023-09-07T21:57:01;9.34;;;7.29;;
17741;SDS011;8993;51.822;-2.268;2023-09-07T22:02:06;8.83;;;6.31;;
17741;SDS011;8993;51.822;-2.268;2023-09-07T22:07:12;12.92;;;8.23;;
17741;SDS011;8993;51.822;-2.268;2023-09-07T22:12:16;13.24;;;8.60;;
17741;SDS011;8993;51.822;-2.268;2023-09-07T22:17:21;13.78;;;8.65;;
17741;SDS011;8993;51.822;-2.268;2023-09-07T22:22:28;9.54;;;6.74;;
17741;SDS011;8993;51.822;-2.268;2023-09-07T22:27:32;13.90;;;8.53;;
17741;SDS011;8993;51.822;-2.268;2023-09-07T22:32:38;11.21;;;8.64;;
17741;SDS011;8993;51.822;-2.268;2023-09-07T22:37:43;11.52;;;7.89;;
17741;SDS011;8993;51.822;-2.268;2023-09-07T22:42:47;9.11;;;6.63;;
17741;SDS011;8993;51.822;-2.268;2023-09-07T22:47:52;9.28;;;7.13;;
17741;SDS011;8993;51.822;-2.268;2023-09-07T22:52:57;11.13;;;7.33;;
17741;SDS011;8993;51.822;-2.268;2023-09-07T22:58:02;12.08;;;9.06;;
17741;SDS011;8993;51.822;-2.268;2023-09-07T23:03:07;8.48;;;6.76;;
17741;SDS011;8993;51.822;-2.268;2023-09-07T23:08:11;10.80;;;8.47;;
17741;SDS011;8993;51.822;-2.268;2023-09-07T23:13:16;10.48;;;7.75;;
17741;SDS011;8993;51.822;-2.268;2023-09-07T23:18:20;11.17;;;7.62;;
17741;SDS011;8993;51.822;-2.268;2023-09-07T23:23:25;8.12;;;5.57;;
17741;SDS011;8993;51.822;-2.268;2023-09-07T23:28:29;8.59;;;6.18;;
17741;SDS011;8993;51.822;-2.268;2023-09-07T23:33:33;6.34;;;5.22;;
17741;SDS011;8993;51.822;-2.268;2023-09-07T23:38:37;10.45;;;7.49;;
17741;SDS011;8993;51.822;-2.268;2023-09-07T23:43:41;6.81;;;5.87;;
17741;SDS011;8993;51.822;-2.268;2023-09-07T23:48:46;8.77;;;6.74;;
17741;SDS011;8993;51.822;-2.268;2023-09-07T23:53:50;7.90;;;6.73;;
17741;SDS011;8993;51.822;-2.268;2023-09-07T23:58:55;7.65;;;6.30;;
